Columbia, Missouri
Current Conditions -  °F | °C
As of 8:54 PM on Tuesday 25 Nov 2014 (Local Time) from KCOU Reporting Station
Clear Clear  
Wind Chill: 24°   Ceiling: Unl
Heat Index: 31°   Visibility: 10mi
Dew Point: 15°   Wind: 7mph
Humidity: 52%   Direction: 130°SE
Pressure: 30.13"   Gusts: NA
Location:  38.95°N, 92.33°W
Report Text: KCOU 260254Z 13006KT 10SM CLR M01/M09 A3013 RMK AO2 SLP213 T10061094 55000
Loading
Personal Weather Stations






























Interactive Weather Map New forecast layout! Learn more

10-Day Weather Forecast

Advertisements
Track Severe Weather on mobile